sensor_id;sensor_type;location;lat;lon;timestamp;P1;durP1;ratioP1;P2;durP2;ratioP2
31728;SDS011;18309;43.658;1.312;2024-03-23T00:52:37;10.60;;;6.20;;
31728;SDS011;18309;43.658;1.312;2024-03-23T00:55:03;14.05;;;6.60;;
31728;SDS011;18309;43.658;1.312;2024-03-23T00:57:28;24.73;;;7.40;;
31728;SDS011;18309;43.658;1.312;2024-03-23T00:59:54;22.75;;;7.55;;
31728;SDS011;18309;43.658;1.312;2024-03-23T01:02:20;19.48;;;7.65;;
31728;SDS011;18309;43.658;1.312;2024-03-23T01:04:45;16.10;;;7.55;;
31728;SDS011;18309;43.658;1.312;2024-03-23T01:07:11;16.70;;;6.88;;
31728;SDS011;18309;43.658;1.312;2024-03-23T01:09:37;16.02;;;7.07;;
31728;SDS011;18309;43.658;1.312;2024-03-23T01:12:03;15.13;;;7.43;;
31728;SDS011;18309;43.658;1.312;2024-03-23T01:14:30;19.92;;;7.40;;
31728;SDS011;18309;43.658;1.312;2024-03-23T01:16:55;18.48;;;8.05;;
31728;SDS011;18309;43.658;1.312;2024-03-23T01:19:21;15.57;;;7.97;;
31728;SDS011;18309;43.658;1.312;2024-03-23T01:21:46;17.80;;;7.35;;
31728;SDS011;18309;43.658;1.312;2024-03-23T01:24:13;20.60;;;7.50;;
31728;SDS011;18309;43.658;1.312;2024-03-23T01:26:39;19.17;;;7.55;;
31728;SDS011;18309;43.658;1.312;2024-03-23T01:29:05;24.58;;;9.02;;
31728;SDS011;18309;43.658;1.312;2024-03-23T01:31:31;18.48;;;8.23;;
31728;SDS011;18309;43.658;1.312;2024-03-23T01:33:57;21.33;;;7.50;;
31728;SDS011;18309;43.658;1.312;2024-03-23T01:36:23;13.73;;;7.53;;
31728;SDS011;18309;43.658;1.312;2024-03-23T01:38:49;17.38;;;7.43;;
31728;SDS011;18309;43.658;1.312;2024-03-23T01:41:16;18.50;;;7.30;;
31728;SDS011;18309;43.658;1.312;2024-03-23T01:43:42;18.80;;;8.00;;
31728;SDS011;18309;43.658;1.312;2024-03-23T01:46:08;20.80;;;7.97;;
31728;SDS011;18309;43.658;1.312;2024-03-23T01:48:34;18.00;;;6.65;;
31728;SDS011;18309;43.658;1.312;2024-03-23T01:51:00;16.45;;;6.05;;
31728;SDS011;18309;43.658;1.312;2024-03-23T01:53:25;15.18;;;6.53;;
31728;SDS011;18309;43.658;1.312;2024-03-23T01:55:51;27.95;;;6.05;;
31728;SDS011;18309;43.658;1.312;2024-03-23T01:58:17;13.35;;;5.00;;
31728;SDS011;18309;43.658;1.312;2024-03-23T02:00:43;13.95;;;5.43;;
31728;SDS011;18309;43.658;1.312;2024-03-23T02:03:24;10.18;;;4.78;;
31728;SDS011;18309;43.658;1.312;2024-03-23T02:05:50;14.20;;;4.93;;
31728;SDS011;18309;43.658;1.312;2024-03-23T02:08:18;13.85;;;4.75;;
31728;SDS011;18309;43.658;1.312;2024-03-23T02:10:51;11.77;;;5.15;;
31728;SDS011;18309;43.658;1.312;2024-03-23T02:13:20;12.07;;;4.32;;
31728;SDS011;18309;43.658;1.312;2024-03-23T02:15:45;12.35;;;4.70;;
31728;SDS011;18309;43.658;1.312;2024-03-23T02:18:11;10.70;;;4.60;;
31728;SDS011;18309;43.658;1.312;2024-03-23T02:20:37;12.50;;;4.40;;
31728;SDS011;18309;43.658;1.312;2024-03-23T02:23:12;11.10;;;4.22;;
31728;SDS011;18309;43.658;1.312;2024-03-23T02:25:43;13.73;;;4.20;;
31728;SDS011;18309;43.658;1.312;2024-03-23T02:28:09;10.23;;;3.85;;
31728;SDS011;18309;43.658;1.312;2024-03-23T02:30:34;13.45;;;4.47;;
31728;SDS011;18309;43.658;1.312;2024-03-23T02:33:00;7.95;;;3.35;;
31728;SDS011;18309;43.658;1.312;2024-03-23T02:35:26;12.68;;;3.67;;
31728;SDS011;18309;43.658;1.312;2024-03-23T02:37:51;10.75;;;3.67;;
31728;SDS011;18309;43.658;1.312;2024-03-23T02:40:18;14.77;;;3.80;;
31728;SDS011;18309;43.658;1.312;2024-03-23T02:42:44;15.40;;;3.47;;
31728;SDS011;18309;43.658;1.312;2024-03-23T02:45:10;8.38;;;2.97;;
31728;SDS011;18309;43.658;1.312;2024-03-23T02:47:36;7.35;;;3.38;;
31728;SDS011;18309;43.658;1.312;2024-03-23T02:50:01;10.80;;;3.38;;
31728;SDS011;18309;43.658;1.312;2024-03-23T02:52:27;6.53;;;2.65;;
31728;SDS011;18309;43.658;1.312;2024-03-23T02:54:53;9.68;;;4.15;;
31728;SDS011;18309;43.658;1.312;2024-03-23T02:57:19;8.52;;;3.40;;
31728;SDS011;18309;43.658;1.312;2024-03-23T02:59:44;12.18;;;3.13;;
31728;SDS011;18309;43.658;1.312;2024-03-23T03:02:11;8.00;;;2.63;;
31728;SDS011;18309;43.658;1.312;2024-03-23T03:04:38;10.30;;;3.22;;
31728;SDS011;18309;43.658;1.312;2024-03-23T03:07:03;10.90;;;2.95;;
31728;SDS011;18309;43.658;1.312;2024-03-23T03:09:29;9.95;;;2.67;;
31728;SDS011;18309;43.658;1.312;2024-03-23T03:11:55;14.07;;;4.22;;
31728;SDS011;18309;43.658;1.312;2024-03-23T03:14:20;12.55;;;3.00;;
31728;SDS011;18309;43.658;1.312;2024-03-23T03:16:46;10.80;;;3.45;;
31728;SDS011;18309;43.658;1.312;2024-03-23T03:19:12;12.60;;;3.03;;
31728;SDS011;18309;43.658;1.312;2024-03-23T03:21:37;9.20;;;3.50;;
31728;SDS011;18309;43.658;1.312;2024-03-23T03:24:05;20.58;;;3.63;;
31728;SDS011;18309;43.658;1.312;2024-03-23T03:26:31;12.88;;;3.83;;
31728;SDS011;18309;43.658;1.312;2024-03-23T03:28:57;12.20;;;3.13;;
31728;SDS011;18309;43.658;1.312;2024-03-23T03:31:23;13.73;;;3.22;;
31728;SDS011;18309;43.658;1.312;2024-03-23T03:33:49;8.77;;;2.90;;
31728;SDS011;18309;43.658;1.312;2024-03-23T03:36:18;11.90;;;3.08;;
31728;SDS011;18309;43.658;1.312;2024-03-23T03:38:44;11.90;;;3.00;;
31728;SDS011;18309;43.658;1.312;2024-03-23T03:41:10;12.60;;;2.88;;
31728;SDS011;18309;43.658;1.312;2024-03-23T03:43:35;13.63;;;3.10;;
31728;SDS011;18309;43.658;1.312;2024-03-23T03:46:01;16.38;;;2.70;;
31728;SDS011;18309;43.658;1.312;2024-03-23T03:48:27;11.43;;;3.00;;
31728;SDS011;18309;43.658;1.312;2024-03-23T03:50:54;11.43;;;2.35;;
31728;SDS011;18309;43.658;1.312;2024-03-23T03:53:19;12.40;;;2.47;;
31728;SDS011;18309;43.658;1.312;2024-03-23T03:55:45;12.52;;;3.25;;
31728;SDS011;18309;43.658;1.312;2024-03-23T03:58:11;13.15;;;2.38;;
31728;SDS011;18309;43.658;1.312;2024-03-23T04:00:37;15.65;;;2.25;;
31728;SDS011;18309;43.658;1.312;2024-03-23T04:03:02;18.65;;;2.47;;
31728;SDS011;18309;43.658;1.312;2024-03-23T04:05:28;14.38;;;2.20;;
31728;SDS011;18309;43.658;1.312;2024-03-23T04:07:54;18.15;;;2.75;;
31728;SDS011;18309;43.658;1.312;2024-03-23T04:10:20;16.30;;;2.35;;
31728;SDS011;18309;43.658;1.312;2024-03-23T04:12:46;12.77;;;2.55;;
31728;SDS011;18309;43.658;1.312;2024-03-23T04:15:13;8.35;;;2.08;;
31728;SDS011;18309;43.658;1.312;2024-03-23T04:17:39;10.70;;;2.65;;
31728;SDS011;18309;43.658;1.312;2024-03-23T04:20:06;16.13;;;2.90;;
31728;SDS011;18309;43.658;1.312;2024-03-23T04:22:36;18.00;;;2.10;;
31728;SDS011;18309;43.658;1.312;2024-03-23T04:25:02;10.27;;;1.95;;
31728;SDS011;18309;43.658;1.312;2024-03-23T04:27:35;12.30;;;2.60;;
31728;SDS011;18309;43.658;1.312;2024-03-23T04:30:04;9.88;;;2.40;;
31728;SDS011;18309;43.658;1.312;2024-03-23T04:32:35;13.07;;;2.00;;
31728;SDS011;18309;43.658;1.312;2024-03-23T04:35:01;9.38;;;2.08;;
31728;SDS011;18309;43.658;1.312;2024-03-23T04:37:30;13.13;;;2.28;;
31728;SDS011;18309;43.658;1.312;2024-03-23T04:39:59;8.63;;;2.10;;
31728;SDS011;18309;43.658;1.312;2024-03-23T04:42:29;15.15;;;3.03;;
31728;SDS011;18309;43.658;1.312;2024-03-23T04:44:55;7.43;;;1.98;;
31728;SDS011;18309;43.658;1.312;2024-03-23T04:47:21;15.77;;;2.10;;
31728;SDS011;18309;43.658;1.312;2024-03-23T04:49:47;8.90;;;1.50;;
31728;SDS011;18309;43.658;1.312;2024-03-23T04:52:13;8.23;;;1.73;;
31728;SDS011;18309;43.658;1.312;2024-03-23T04:54:41;17.02;;;2.10;;
31728;SDS011;18309;43.658;1.312;2024-03-23T04:57:07;12.27;;;1.90;;
31728;SDS011;18309;43.658;1.312;2024-03-23T04:59:33;8.65;;;1.48;;
31728;SDS011;18309;43.658;1.312;2024-03-23T05:01:59;8.00;;;1.92;;
31728;SDS011;18309;43.658;1.312;2024-03-23T05:04:28;7.90;;;1.73;;
31728;SDS011;18309;43.658;1.312;2024-03-23T05:06:53;11.15;;;1.83;;
31728;SDS011;18309;43.658;1.312;2024-03-23T05:09:19;14.20;;;2.15;;
31728;SDS011;18309;43.658;1.312;2024-03-23T05:11:45;8.82;;;2.40;;
31728;SDS011;18309;43.658;1.312;2024-03-23T05:14:13;14.30;;;2.05;;
31728;SDS011;18309;43.658;1.312;2024-03-23T05:16:39;17.30;;;2.47;;
31728;SDS011;18309;43.658;1.312;2024-03-23T05:19:05;7.40;;;2.03;;
31728;SDS011;18309;43.658;1.312;2024-03-23T05:21:31;15.07;;;2.03;;
31728;SDS011;18309;43.658;1.312;2024-03-23T05:23:57;9.18;;;1.75;;
31728;SDS011;18309;43.658;1.312;2024-03-23T05:26:24;13.88;;;2.22;;
31728;SDS011;18309;43.658;1.312;2024-03-23T05:28:49;8.07;;;2.17;;
31728;SDS011;18309;43.658;1.312;2024-03-23T05:31:25;7.93;;;2.00;;
31728;SDS011;18309;43.658;1.312;2024-03-23T05:33:52;12.93;;;2.53;;
31728;SDS011;18309;43.658;1.312;2024-03-23T05:36:18;11.15;;;2.25;;
31728;SDS011;18309;43.658;1.312;2024-03-23T05:38:43;10.05;;;2.05;;
31728;SDS011;18309;43.658;1.312;2024-03-23T05:41:09;6.20;;;2.00;;
31728;SDS011;18309;43.658;1.312;2024-03-23T05:43:35;12.90;;;2.95;;
31728;SDS011;18309;43.658;1.312;2024-03-23T05:46:01;12.80;;;2.17;;
31728;SDS011;18309;43.658;1.312;2024-03-23T05:48:28;9.07;;;2.05;;
31728;SDS011;18309;43.658;1.312;2024-03-23T05:50:55;6.85;;;1.92;;
31728;SDS011;18309;43.658;1.312;2024-03-23T05:53:21;15.23;;;2.72;;
31728;SDS011;18309;43.658;1.312;2024-03-23T05:55:48;7.63;;;1.98;;
31728;SDS011;18309;43.658;1.312;2024-03-23T05:58:14;10.95;;;2.22;;
31728;SDS011;18309;43.658;1.312;2024-03-23T06:00:41;12.80;;;1.95;;
31728;SDS011;18309;43.658;1.312;2024-03-23T06:03:07;7.03;;;2.15;;
31728;SDS011;18309;43.658;1.312;2024-03-23T06:05:33;9.13;;;1.80;;
31728;SDS011;18309;43.658;1.312;2024-03-23T06:07:59;12.25;;;2.53;;
31728;SDS011;18309;43.658;1.312;2024-03-23T06:10:25;13.45;;;2.33;;
31728;SDS011;18309;43.658;1.312;2024-03-23T06:12:51;13.85;;;2.35;;
31728;SDS011;18309;43.658;1.312;2024-03-23T06:15:19;11.30;;;2.20;;
31728;SDS011;18309;43.658;1.312;2024-03-23T06:17:45;12.02;;;2.20;;
31728;SDS011;18309;43.658;1.312;2024-03-23T06:20:11;11.02;;;2.20;;
31728;SDS011;18309;43.658;1.312;2024-03-23T06:22:37;6.65;;;1.90;;
31728;SDS011;18309;43.658;1.312;2024-03-23T06:25:03;5.88;;;2.03;;
31728;SDS011;18309;43.658;1.312;2024-03-23T06:27:29;11.65;;;2.33;;
31728;SDS011;18309;43.658;1.312;2024-03-23T06:29:57;14.60;;;2.70;;
31728;SDS011;18309;43.658;1.312;2024-03-23T06:32:23;11.55;;;2.50;;
31728;SDS011;18309;43.658;1.312;2024-03-23T06:34:48;10.90;;;2.08;;
31728;SDS011;18309;43.658;1.312;2024-03-23T06:37:14;10.15;;;2.53;;
31728;SDS011;18309;43.658;1.312;2024-03-23T06:39:40;10.45;;;2.65;;
31728;SDS011;18309;43.658;1.312;2024-03-23T06:42:05;7.05;;;2.33;;
31728;SDS011;18309;43.658;1.312;2024-03-23T06:44:31;10.55;;;2.53;;
31728;SDS011;18309;43.658;1.312;2024-03-23T06:46:57;10.38;;;2.33;;
31728;SDS011;18309;43.658;1.312;2024-03-23T06:49:23;10.20;;;2.47;;
31728;SDS011;18309;43.658;1.312;2024-03-23T06:51:49;17.02;;;3.25;;
31728;SDS011;18309;43.658;1.312;2024-03-23T06:54:16;8.77;;;2.30;;
31728;SDS011;18309;43.658;1.312;2024-03-23T06:56:43;6.32;;;2.25;;
31728;SDS011;18309;43.658;1.312;2024-03-23T06:59:09;9.18;;;2.58;;
31728;SDS011;18309;43.658;1.312;2024-03-23T07:01:34;11.00;;;2.75;;
31728;SDS011;18309;43.658;1.312;2024-03-23T07:04:00;6.63;;;1.40;;
31728;SDS011;18309;43.658;1.312;2024-03-23T07:06:26;4.57;;;0.70;;
31728;SDS011;18309;43.658;1.312;2024-03-23T07:08:52;3.80;;;0.65;;
31728;SDS011;18309;43.658;1.312;2024-03-23T07:11:21;6.63;;;0.52;;
31728;SDS011;18309;43.658;1.312;2024-03-23T07:13:49;1.15;;;0.32;;
31728;SDS011;18309;43.658;1.312;2024-03-23T07:16:16;4.32;;;0.60;;
31728;SDS011;18309;43.658;1.312;2024-03-23T07:18:42;2.97;;;0.40;;
31728;SDS011;18309;43.658;1.312;2024-03-23T07:21:08;1.65;;;0.20;;
31728;SDS011;18309;43.658;1.312;2024-03-23T07:23:33;3.15;;;0.93;;
31728;SDS011;18309;43.658;1.312;2024-03-23T07:26:03;4.78;;;0.95;;
31728;SDS011;18309;43.658;1.312;2024-03-23T07:28:30;2.90;;;0.77;;
31728;SDS011;18309;43.658;1.312;2024-03-23T07:31:07;7.90;;;0.60;;
31728;SDS011;18309;43.658;1.312;2024-03-23T07:33:34;7.35;;;0.88;;
31728;SDS011;18309;43.658;1.312;2024-03-23T07:36:00;3.45;;;0.70;;
31728;SDS011;18309;43.658;1.312;2024-03-23T07:38:27;7.75;;;1.30;;
31728;SDS011;18309;43.658;1.312;2024-03-23T07:41:06;6.00;;;0.80;;
31728;SDS011;18309;43.658;1.312;2024-03-23T07:43:33;6.18;;;0.75;;
31728;SDS011;18309;43.658;1.312;2024-03-23T07:45:59;7.13;;;1.05;;
31728;SDS011;18309;43.658;1.312;2024-03-23T07:48:25;11.48;;;0.95;;
31728;SDS011;18309;43.658;1.312;2024-03-23T07:53:36;6.05;;;1.02;;
31728;SDS011;18309;43.658;1.312;2024-03-23T07:58:29;6.93;;;1.23;;
31728;SDS011;18309;43.658;1.312;2024-03-23T08:00:55;8.27;;;1.20;;
31728;SDS011;18309;43.658;1.312;2024-03-23T08:03:21;8.77;;;1.35;;
31728;SDS011;18309;43.658;1.312;2024-03-23T08:05:47;12.40;;;1.77;;
31728;SDS011;18309;43.658;1.312;2024-03-23T08:08:13;8.25;;;1.23;;
31728;SDS011;18309;43.658;1.312;2024-03-23T08:10:52;10.75;;;1.67;;
31728;SDS011;18309;43.658;1.312;2024-03-23T08:13:18;10.65;;;1.50;;
31728;SDS011;18309;43.658;1.312;2024-03-23T08:15:44;14.50;;;2.13;;
31728;SDS011;18309;43.658;1.312;2024-03-23T08:18:11;12.07;;;2.10;;
31728;SDS011;18309;43.658;1.312;2024-03-23T08:20:38;19.63;;;2.80;;
31728;SDS011;18309;43.658;1.312;2024-03-23T08:23:07;15.25;;;2.05;;
31728;SDS011;18309;43.658;1.312;2024-03-23T08:25:33;11.95;;;2.90;;
31728;SDS011;18309;43.658;1.312;2024-03-23T08:27:59;15.93;;;2.70;;
31728;SDS011;18309;43.658;1.312;2024-03-23T08:30:25;14.05;;;2.65;;
31728;SDS011;18309;43.658;1.312;2024-03-23T08:32:50;23.70;;;2.00;;
31728;SDS011;18309;43.658;1.312;2024-03-23T08:35:16;15.13;;;2.58;;
31728;SDS011;18309;43.658;1.312;2024-03-23T08:37:43;19.60;;;2.78;;
31728;SDS011;18309;43.658;1.312;2024-03-23T08:40:08;15.63;;;1.88;;
31728;SDS011;18309;43.658;1.312;2024-03-23T08:42:35;17.27;;;2.58;;
31728;SDS011;18309;43.658;1.312;2024-03-23T08:45:01;18.42;;;3.10;;
31728;SDS011;18309;43.658;1.312;2024-03-23T08:47:26;16.10;;;3.08;;
31728;SDS011;18309;43.658;1.312;2024-03-23T08:49:52;18.58;;;2.70;;
31728;SDS011;18309;43.658;1.312;2024-03-23T09:02:39;17.30;;;2.47;;
31728;SDS011;18309;43.658;1.312;2024-03-23T09:05:05;14.35;;;2.53;;
31728;SDS011;18309;43.658;1.312;2024-03-23T09:07:31;11.43;;;1.60;;
31728;SDS011;18309;43.658;1.312;2024-03-23T09:09:56;17.65;;;3.10;;
31728;SDS011;18309;43.658;1.312;2024-03-23T09:12:22;16.65;;;1.95;;
31728;SDS011;18309;43.658;1.312;2024-03-23T09:14:48;21.25;;;2.75;;
31728;SDS011;18309;43.658;1.312;2024-03-23T09:17:15;14.68;;;2.10;;
31728;SDS011;18309;43.658;1.312;2024-03-23T09:19:40;21.38;;;2.45;;
31728;SDS011;18309;43.658;1.312;2024-03-23T09:22:06;21.23;;;2.25;;
31728;SDS011;18309;43.658;1.312;2024-03-23T09:24:32;15.18;;;2.45;;
31728;SDS011;18309;43.658;1.312;2024-03-23T09:26:57;12.30;;;2.13;;
31728;SDS011;18309;43.658;1.312;2024-03-23T09:29:23;17.33;;;2.38;;
31728;SDS011;18309;43.658;1.312;2024-03-23T09:31:49;16.17;;;3.03;;
31728;SDS011;18309;43.658;1.312;2024-03-23T09:34:14;19.80;;;2.40;;
31728;SDS011;18309;43.658;1.312;2024-03-23T09:36:40;21.85;;;2.08;;
31728;SDS011;18309;43.658;1.312;2024-03-23T09:39:06;13.30;;;2.63;;
31728;SDS011;18309;43.658;1.312;2024-03-23T09:41:34;15.60;;;2.10;;
31728;SDS011;18309;43.658;1.312;2024-03-23T09:44:00;13.27;;;2.20;;
31728;SDS011;18309;43.658;1.312;2024-03-23T09:46:27;10.43;;;1.75;;
31728;SDS011;18309;43.658;1.312;2024-03-23T09:48:53;14.27;;;1.92;;
31728;SDS011;18309;43.658;1.312;2024-03-23T09:51:21;11.52;;;2.33;;
31728;SDS011;18309;43.658;1.312;2024-03-23T09:53:48;13.02;;;1.85;;
31728;SDS011;18309;43.658;1.312;2024-03-23T09:56:15;15.60;;;2.20;;
31728;SDS011;18309;43.658;1.312;2024-03-23T09:58:42;14.85;;;2.10;;
31728;SDS011;18309;43.658;1.312;2024-03-23T10:01:08;13.52;;;2.20;;
31728;SDS011;18309;43.658;1.312;2024-03-23T10:03:44;10.30;;;1.70;;
31728;SDS011;18309;43.658;1.312;2024-03-23T10:06:10;14.80;;;2.33;;
31728;SDS011;18309;43.658;1.312;2024-03-23T10:08:36;14.82;;;1.83;;
31728;SDS011;18309;43.658;1.312;2024-03-23T10:11:20;12.23;;;1.75;;
31728;SDS011;18309;43.658;1.312;2024-03-23T10:13:46;10.80;;;2.47;;
31728;SDS011;18309;43.658;1.312;2024-03-23T10:16:12;14.20;;;1.95;;
31728;SDS011;18309;43.658;1.312;2024-03-23T10:18:47;12.48;;;1.98;;
31728;SDS011;18309;43.658;1.312;2024-03-23T10:21:14;9.43;;;1.83;;
31728;SDS011;18309;43.658;1.312;2024-03-23T10:23:41;11.05;;;1.90;;
31728;SDS011;18309;43.658;1.312;2024-03-23T10:26:16;15.43;;;2.13;;
31728;SDS011;18309;43.658;1.312;2024-03-23T10:29:00;13.93;;;2.20;;
31728;SDS011;18309;43.658;1.312;2024-03-23T10:31:30;18.13;;;2.28;;
31728;SDS011;18309;43.658;1.312;2024-03-23T10:33:57;18.23;;;2.72;;
31728;SDS011;18309;43.658;1.312;2024-03-23T10:36:23;13.13;;;2.17;;
31728;SDS011;18309;43.658;1.312;2024-03-23T10:38:54;8.85;;;1.92;;
31728;SDS011;18309;43.658;1.312;2024-03-23T10:41:19;14.65;;;2.30;;
31728;SDS011;18309;43.658;1.312;2024-03-23T10:43:46;10.98;;;1.73;;
31728;SDS011;18309;43.658;1.312;2024-03-23T10:46:12;8.63;;;2.15;;
31728;SDS011;18309;43.658;1.312;2024-03-23T10:48:38;15.98;;;1.92;;
31728;SDS011;18309;43.658;1.312;2024-03-23T10:51:08;12.38;;;1.70;;
31728;SDS011;18309;43.658;1.312;2024-03-23T10:53:35;10.15;;;1.77;;
31728;SDS011;18309;43.658;1.312;2024-03-23T10:56:02;9.32;;;1.85;;
31728;SDS011;18309;43.658;1.312;2024-03-23T10:58:39;8.50;;;1.42;;
31728;SDS011;18309;43.658;1.312;2024-03-23T11:01:11;8.98;;;1.23;;
31728;SDS011;18309;43.658;1.312;2024-03-23T11:03:38;10.93;;;1.90;;
31728;SDS011;18309;43.658;1.312;2024-03-23T11:06:09;10.38;;;1.40;;
31728;SDS011;18309;43.658;1.312;2024-03-23T11:08:36;7.88;;;1.52;;
31728;SDS011;18309;43.658;1.312;2024-03-23T11:11:27;9.93;;;1.40;;
31728;SDS011;18309;43.658;1.312;2024-03-23T11:13:53;10.23;;;1.90;;
31728;SDS011;18309;43.658;1.312;2024-03-23T11:16:23;12.77;;;1.55;;
31728;SDS011;18309;43.658;1.312;2024-03-23T11:22:02;8.77;;;1.17;;
31728;SDS011;18309;43.658;1.312;2024-03-23T11:24:30;9.77;;;2.15;;
31728;SDS011;18309;43.658;1.312;2024-03-23T11:26:56;10.32;;;1.83;;
31728;SDS011;18309;43.658;1.312;2024-03-23T11:29:25;12.82;;;1.70;;
31728;SDS011;18309;43.658;1.312;2024-03-23T11:31:52;10.23;;;1.50;;
31728;SDS011;18309;43.658;1.312;2024-03-23T11:34:21;11.38;;;1.60;;
31728;SDS011;18309;43.658;1.312;2024-03-23T11:36:47;12.20;;;1.73;;
31728;SDS011;18309;43.658;1.312;2024-03-23T11:39:15;6.28;;;1.38;;
31728;SDS011;18309;43.658;1.312;2024-03-23T11:41:49;8.43;;;1.58;;
31728;SDS011;18309;43.658;1.312;2024-03-23T11:44:20;7.53;;;1.70;;
31728;SDS011;18309;43.658;1.312;2024-03-23T11:46:49;3.78;;;0.98;;
31728;SDS011;18309;43.658;1.312;2024-03-23T11:49:24;5.47;;;1.20;;
31728;SDS011;18309;43.658;1.312;2024-03-23T11:51:54;6.88;;;1.67;;
31728;SDS011;18309;43.658;1.312;2024-03-23T11:54:21;4.05;;;1.05;;
31728;SDS011;18309;43.658;1.312;2024-03-23T11:56:54;4.50;;;0.85;;
31728;SDS011;18309;43.658;1.312;2024-03-23T11:59:56;5.82;;;1.13;;
31728;SDS011;18309;43.658;1.312;2024-03-23T12:02:15;6.68;;;1.02;;
31728;SDS011;18309;43.658;1.312;2024-03-23T12:04:43;7.20;;;1.10;;
31728;SDS011;18309;43.658;1.312;2024-03-23T12:09:39;4.85;;;0.90;;
31728;SDS011;18309;43.658;1.312;2024-03-23T12:12:15;4.45;;;0.60;;
31728;SDS011;18309;43.658;1.312;2024-03-23T12:14:42;5.43;;;1.20;;
31728;SDS011;18309;43.658;1.312;2024-03-23T12:17:12;8.50;;;1.15;;
31728;SDS011;18309;43.658;1.312;2024-03-23T12:19:39;6.07;;;0.95;;
31728;SDS011;18309;43.658;1.312;2024-03-23T12:22:06;7.20;;;1.27;;
31728;SDS011;18309;43.658;1.312;2024-03-23T12:24:36;7.05;;;0.85;;
31728;SDS011;18309;43.658;1.312;2024-03-23T12:27:02;5.57;;;0.73;;
31728;SDS011;18309;43.658;1.312;2024-03-23T12:29:30;14.38;;;1.35;;
31728;SDS011;18309;43.658;1.312;2024-03-23T12:32:00;7.28;;;1.08;;
31728;SDS011;18309;43.658;1.312;2024-03-23T12:34:26;9.15;;;1.35;;
31728;SDS011;18309;43.658;1.312;2024-03-23T12:36:53;8.45;;;1.00;;
31728;SDS011;18309;43.658;1.312;2024-03-23T12:39:19;6.20;;;0.90;;
31728;SDS011;18309;43.658;1.312;2024-03-23T12:41:48;9.15;;;1.80;;
31728;SDS011;18309;43.658;1.312;2024-03-23T12:44:14;13.50;;;1.52;;
31728;SDS011;18309;43.658;1.312;2024-03-23T12:46:43;5.80;;;0.77;;
31728;SDS011;18309;43.658;1.312;2024-03-23T12:49:10;7.78;;;1.10;;
31728;SDS011;18309;43.658;1.312;2024-03-23T12:51:36;10.65;;;1.42;;
31728;SDS011;18309;43.658;1.312;2024-03-23T12:56:29;4.80;;;1.10;;
31728;SDS011;18309;43.658;1.312;2024-03-23T12:58:55;12.15;;;1.42;;
31728;SDS011;18309;43.658;1.312;2024-03-23T13:01:25;9.18;;;1.42;;
31728;SDS011;18309;43.658;1.312;2024-03-23T13:03:51;8.13;;;0.93;;
31728;SDS011;18309;43.658;1.312;2024-03-23T13:06:17;7.38;;;1.02;;
31728;SDS011;18309;43.658;1.312;2024-03-23T13:08:44;7.22;;;1.23;;
31728;SDS011;18309;43.658;1.312;2024-03-23T13:11:10;9.15;;;1.45;;
31728;SDS011;18309;43.658;1.312;2024-03-23T13:13:37;8.73;;;1.25;;
31728;SDS011;18309;43.658;1.312;2024-03-23T13:16:03;4.80;;;1.02;;
31728;SDS011;18309;43.658;1.312;2024-03-23T13:18:30;9.82;;;1.83;;
31728;SDS011;18309;43.658;1.312;2024-03-23T13:20:56;19.23;;;1.85;;
31728;SDS011;18309;43.658;1.312;2024-03-23T13:23:22;7.68;;;1.45;;
31728;SDS011;18309;43.658;1.312;2024-03-23T13:25:51;7.63;;;1.30;;
31728;SDS011;18309;43.658;1.312;2024-03-23T13:28:18;8.63;;;1.65;;
31728;SDS011;18309;43.658;1.312;2024-03-23T13:30:51;9.38;;;1.27;;
31728;SDS011;18309;43.658;1.312;2024-03-23T13:33:17;5.88;;;1.10;;
31728;SDS011;18309;43.658;1.312;2024-03-23T13:35:52;5.30;;;1.00;;
31728;SDS011;18309;43.658;1.312;2024-03-23T13:38:20;13.45;;;1.65;;
31728;SDS011;18309;43.658;1.312;2024-03-23T13:40:52;11.20;;;1.70;;
31728;SDS011;18309;43.658;1.312;2024-03-23T13:43:19;8.48;;;1.00;;
31728;SDS011;18309;43.658;1.312;2024-03-23T13:45:48;7.40;;;1.48;;
31728;SDS011;18309;43.658;1.312;2024-03-23T13:48:17;5.97;;;1.00;;
31728;SDS011;18309;43.658;1.312;2024-03-23T13:50:47;12.20;;;1.13;;
31728;SDS011;18309;43.658;1.312;2024-03-23T13:53:13;11.68;;;1.58;;
31728;SDS011;18309;43.658;1.312;2024-03-23T13:55:48;9.27;;;1.80;;
31728;SDS011;18309;43.658;1.312;2024-03-23T13:58:14;14.50;;;1.88;;
31728;SDS011;18309;43.658;1.312;2024-03-23T14:00:40;11.05;;;1.27;;
31728;SDS011;18309;43.658;1.312;2024-03-23T14:03:09;9.63;;;1.15;;
31728;SDS011;18309;43.658;1.312;2024-03-23T14:05:36;9.40;;;1.40;;
31728;SDS011;18309;43.658;1.312;2024-03-23T14:08:08;11.32;;;1.40;;
31728;SDS011;18309;43.658;1.312;2024-03-23T14:10:35;11.20;;;1.52;;
31728;SDS011;18309;43.658;1.312;2024-03-23T14:13:01;6.80;;;1.27;;
31728;SDS011;18309;43.658;1.312;2024-03-23T14:15:30;8.38;;;1.58;;
31728;SDS011;18309;43.658;1.312;2024-03-23T14:17:56;7.65;;;1.00;;
31728;SDS011;18309;43.658;1.312;2024-03-23T14:20:22;9.07;;;1.30;;
31728;SDS011;18309;43.658;1.312;2024-03-23T14:22:49;9.00;;;1.48;;
31728;SDS011;18309;43.658;1.312;2024-03-23T14:25:15;9.18;;;2.13;;
31728;SDS011;18309;43.658;1.312;2024-03-23T14:27:42;12.07;;;1.95;;
31728;SDS011;18309;43.658;1.312;2024-03-23T14:30:09;7.63;;;1.40;;
31728;SDS011;18309;43.658;1.312;2024-03-23T14:32:35;10.02;;;2.13;;
31728;SDS011;18309;43.658;1.312;2024-03-23T14:35:02;7.60;;;1.70;;
31728;SDS011;18309;43.658;1.312;2024-03-23T14:37:29;9.05;;;2.17;;
31728;SDS011;18309;43.658;1.312;2024-03-23T14:39:57;9.90;;;1.33;;
31728;SDS011;18309;43.658;1.312;2024-03-23T14:42:24;8.52;;;1.48;;
31728;SDS011;18309;43.658;1.312;2024-03-23T14:44:50;16.85;;;2.00;;
31728;SDS011;18309;43.658;1.312;2024-03-23T14:47:17;10.25;;;1.48;;
31728;SDS011;18309;43.658;1.312;2024-03-23T14:49:43;11.77;;;1.85;;
31728;SDS011;18309;43.658;1.312;2024-03-23T14:52:13;11.55;;;2.35;;
31728;SDS011;18309;43.658;1.312;2024-03-23T14:54:39;7.25;;;1.75;;
31728;SDS011;18309;43.658;1.312;2024-03-23T14:57:05;8.93;;;1.38;;
31728;SDS011;18309;43.658;1.312;2024-03-23T14:59:32;12.38;;;1.58;;
31728;SDS011;18309;43.658;1.312;2024-03-23T15:01:58;13.25;;;2.40;;
31728;SDS011;18309;43.658;1.312;2024-03-23T15:04:23;9.02;;;1.38;;
31728;SDS011;18309;43.658;1.312;2024-03-23T15:06:49;14.20;;;2.30;;
31728;SDS011;18309;43.658;1.312;2024-03-23T15:09:15;13.82;;;1.58;;
31728;SDS011;18309;43.658;1.312;2024-03-23T15:11:41;8.85;;;1.60;;
31728;SDS011;18309;43.658;1.312;2024-03-23T15:14:07;10.65;;;1.95;;
31728;SDS011;18309;43.658;1.312;2024-03-23T15:16:33;9.00;;;1.58;;
31728;SDS011;18309;43.658;1.312;2024-03-23T15:18:59;11.05;;;2.08;;
31728;SDS011;18309;43.658;1.312;2024-03-23T15:21:25;7.75;;;1.90;;
31728;SDS011;18309;43.658;1.312;2024-03-23T15:23:50;9.63;;;1.40;;
31728;SDS011;18309;43.658;1.312;2024-03-23T15:26:16;6.40;;;1.33;;
31728;SDS011;18309;43.658;1.312;2024-03-23T15:28:42;9.75;;;1.40;;
31728;SDS011;18309;43.658;1.312;2024-03-23T15:31:23;8.40;;;1.40;;
31728;SDS011;18309;43.658;1.312;2024-03-23T15:33:49;15.50;;;1.60;;
31728;SDS011;18309;43.658;1.312;2024-03-23T15:36:15;9.40;;;1.83;;
31728;SDS011;18309;43.658;1.312;2024-03-23T15:38:41;14.05;;;1.85;;
31728;SDS011;18309;43.658;1.312;2024-03-23T15:41:08;10.35;;;1.52;;
31728;SDS011;18309;43.658;1.312;2024-03-23T15:43:33;13.23;;;2.22;;
31728;SDS011;18309;43.658;1.312;2024-03-23T15:46:00;10.10;;;1.75;;
31728;SDS011;18309;43.658;1.312;2024-03-23T15:48:28;9.23;;;1.83;;
31728;SDS011;18309;43.658;1.312;2024-03-23T15:50:54;8.70;;;1.58;;
31728;SDS011;18309;43.658;1.312;2024-03-23T15:53:24;8.10;;;1.90;;
31728;SDS011;18309;43.658;1.312;2024-03-23T15:55:57;9.82;;;1.50;;